sensor_id;sensor_type;location;lat;lon;timestamp;pressure;altitude;pressure_sealevel;temperature;humidity
44351;BME280;62766;62.622;17.912;2023-02-19T00:00:39;99071.19;;;-2.13;63.52
44351;BME280;62766;62.622;17.912;2023-02-19T00:03:07;99074.32;;;-2.01;63.43
44351;BME280;62766;62.622;17.912;2023-02-19T00:05:36;99073.69;;;-2.13;63.53
44351;BME280;62766;62.622;17.912;2023-02-19T00:08:04;99078.33;;;-2.09;63.48
44351;BME280;62766;62.622;17.912;2023-02-19T00:10:33;99081.17;;;-2.10;63.60
44351;BME280;62766;62.622;17.912;2023-02-19T00:13:01;99071.28;;;-2.01;63.53
44351;BME280;62766;62.622;17.912;2023-02-19T00:15:30;99078.61;;;-1.93;63.83
44351;BME280;62766;62.622;17.912;2023-02-19T00:17:59;99070.52;;;-2.07;64.20
44351;BME280;62766;62.622;17.912;2023-02-19T00:20:27;99084.81;;;-1.99;63.94
44351;BME280;62766;62.622;17.912;2023-02-19T00:22:56;99081.48;;;-2.13;64.37
44351;BME280;62766;62.622;17.912;2023-02-19T00:25:25;99076.59;;;-2.22;64.32
44351;BME280;62766;62.622;17.912;2023-02-19T00:27:53;99076.78;;;-1.89;63.93
44351;BME280;62766;62.622;17.912;2023-02-19T00:30:22;99068.99;;;-1.99;63.70
44351;BME280;62766;62.622;17.912;2023-02-19T00:32:50;99075.13;;;-1.84;63.45
44351;BME280;62766;62.622;17.912;2023-02-19T00:35:18;99074.73;;;-1.85;63.27
44351;BME280;62766;62.622;17.912;2023-02-19T00:37:47;99080.61;;;-1.94;63.19
44351;BME280;62766;62.622;17.912;2023-02-19T00:40:16;99090.37;;;-1.86;63.74
44351;BME280;62766;62.622;17.912;2023-02-19T00:42:44;99081.32;;;-1.82;63.74
44351;BME280;62766;62.622;17.912;2023-02-19T00:45:13;99090.65;;;-1.90;63.56
44351;BME280;62766;62.622;17.912;2023-02-19T00:47:41;99083.12;;;-1.66;63.14
44351;BME280;62766;62.622;17.912;2023-02-19T00:50:10;99078.25;;;-1.72;62.87
44351;BME280;62766;62.622;17.912;2023-02-19T00:52:38;99090.35;;;-1.71;63.00
44351;BME280;62766;62.622;17.912;2023-02-19T00:55:07;99099.63;;;-1.68;62.73
44351;BME280;62766;62.622;17.912;2023-02-19T00:57:35;99102.25;;;-1.64;62.66
44351;BME280;62766;62.622;17.912;2023-02-19T01:00:05;99095.26;;;-1.53;62.61
44351;BME280;62766;62.622;17.912;2023-02-19T01:02:32;99098.51;;;-1.67;63.01
44351;BME280;62766;62.622;17.912;2023-02-19T01:05:03;99093.49;;;-1.81;63.33
44351;BME280;62766;62.622;17.912;2023-02-19T01:07:34;99097.74;;;-1.92;63.56
44351;BME280;62766;62.622;17.912;2023-02-19T01:10:02;99101.55;;;-1.93;63.83
44351;BME280;62766;62.622;17.912;2023-02-19T01:12:31;99097.65;;;-1.94;63.70
44351;BME280;62766;62.622;17.912;2023-02-19T01:14:59;99096.20;;;-1.73;63.56
44351;BME280;62766;62.622;17.912;2023-02-19T01:17:27;99094.66;;;-1.88;63.35
44351;BME280;62766;62.622;17.912;2023-02-19T01:19:56;99100.61;;;-1.83;63.35
44351;BME280;62766;62.622;17.912;2023-02-19T01:22:25;99098.50;;;-1.74;63.53
44351;BME280;62766;62.622;17.912;2023-02-19T01:24:53;99096.13;;;-1.62;63.12
44351;BME280;62766;62.622;17.912;2023-02-19T01:27:21;99101.22;;;-1.63;63.23
44351;BME280;62766;62.622;17.912;2023-02-19T01:29:50;99102.33;;;-1.60;63.42
44351;BME280;62766;62.622;17.912;2023-02-19T01:32:19;99105.01;;;-1.75;63.16
44351;BME280;62766;62.622;17.912;2023-02-19T01:34:47;99103.91;;;-1.84;63.41
44351;BME280;62766;62.622;17.912;2023-02-19T01:37:16;99112.14;;;-1.76;63.37
44351;BME280;62766;62.622;17.912;2023-02-19T01:39:44;99119.54;;;-1.79;63.46
44351;BME280;62766;62.622;17.912;2023-02-19T01:42:14;99109.74;;;-1.73;63.58
44351;BME280;62766;62.622;17.912;2023-02-19T01:45:21;99116.85;;;-1.83;63.61
44351;BME280;62766;62.622;17.912;2023-02-19T01:47:57;99107.82;;;-1.84;63.84
44351;BME280;62766;62.622;17.912;2023-02-19T01:50:29;99118.47;;;-1.89;63.85
44351;BME280;62766;62.622;17.912;2023-02-19T01:53:02;99117.89;;;-1.77;63.80
44351;BME280;62766;62.622;17.912;2023-02-19T01:55:34;99111.54;;;-1.69;63.86
44351;BME280;62766;62.622;17.912;2023-02-19T01:58:02;99118.16;;;-1.60;63.53
44351;BME280;62766;62.622;17.912;2023-02-19T02:00:32;99122.12;;;-1.64;63.57
44351;BME280;62766;62.622;17.912;2023-02-19T02:03:00;99128.88;;;-1.65;63.38
44351;BME280;62766;62.622;17.912;2023-02-19T02:05:39;99124.90;;;-1.73;63.32
44351;BME280;62766;62.622;17.912;2023-02-19T02:08:13;99130.75;;;-1.78;63.20
44351;BME280;62766;62.622;17.912;2023-02-19T02:10:42;99134.35;;;-1.73;63.44
44351;BME280;62766;62.622;17.912;2023-02-19T02:13:10;99135.93;;;-1.63;63.74
44351;BME280;62766;62.622;17.912;2023-02-19T02:15:44;99141.47;;;-1.70;63.34
44351;BME280;62766;62.622;17.912;2023-02-19T02:18:25;99143.32;;;-1.54;63.24
44351;BME280;62766;62.622;17.912;2023-02-19T02:21:03;99141.32;;;-1.63;62.88
44351;BME280;62766;62.622;17.912;2023-02-19T02:23:46;99144.37;;;-1.51;62.38
44351;BME280;62766;62.622;17.912;2023-02-19T02:26:26;99141.43;;;-1.59;62.28
44351;BME280;62766;62.622;17.912;2023-02-19T02:29:23;99140.36;;;-1.34;62.18
44351;BME280;62766;62.622;17.912;2023-02-19T02:32:01;99146.76;;;-1.46;62.43
44351;BME280;62766;62.622;17.912;2023-02-19T02:34:35;99139.81;;;-1.44;62.21
44351;BME280;62766;62.622;17.912;2023-02-19T02:37:08;99150.81;;;-1.35;62.13
44351;BME280;62766;62.622;17.912;2023-02-19T02:39:38;99146.57;;;-1.23;61.98
44351;BME280;62766;62.622;17.912;2023-02-19T02:42:09;99157.11;;;-1.35;61.71
44351;BME280;62766;62.622;17.912;2023-02-19T02:44:39;99154.03;;;-1.19;61.65
44351;BME280;62766;62.622;17.912;2023-02-19T02:47:08;99159.71;;;-1.27;61.95
44351;BME280;62766;62.622;17.912;2023-02-19T02:49:38;99149.72;;;-1.15;61.87
44351;BME280;62766;62.622;17.912;2023-02-19T02:52:07;99151.12;;;-1.34;62.24
44351;BME280;62766;62.622;17.912;2023-02-19T02:54:35;99155.02;;;-1.28;62.19
44351;BME280;62766;62.622;17.912;2023-02-19T02:57:05;99157.17;;;-1.32;62.12
44351;BME280;62766;62.622;17.912;2023-02-19T02:59:36;99154.89;;;-1.31;62.29
44351;BME280;62766;62.622;17.912;2023-02-19T03:02:14;99159.56;;;-1.30;62.25
44351;BME280;62766;62.622;17.912;2023-02-19T03:04:48;99159.86;;;-1.40;62.29
44351;BME280;62766;62.622;17.912;2023-02-19T03:07:19;99157.74;;;-1.48;62.67
44351;BME280;62766;62.622;17.912;2023-02-19T03:09:47;99170.68;;;-1.41;62.59
44351;BME280;62766;62.622;17.912;2023-02-19T03:12:16;99157.60;;;-1.43;62.64
44351;BME280;62766;62.622;17.912;2023-02-19T03:14:50;99160.41;;;-1.32;62.39
44351;BME280;62766;62.622;17.912;2023-02-19T03:17:26;99159.71;;;-1.39;62.04
44351;BME280;62766;62.622;17.912;2023-02-19T03:20:00;99167.23;;;-1.50;62.02
44351;BME280;62766;62.622;17.912;2023-02-19T03:22:33;99176.12;;;-1.33;62.66
44351;BME280;62766;62.622;17.912;2023-02-19T03:25:07;99166.28;;;-1.39;62.07
44351;BME280;62766;62.622;17.912;2023-02-19T03:27:38;99166.80;;;-1.50;62.35
44351;BME280;62766;62.622;17.912;2023-02-19T03:30:12;99175.15;;;-1.50;62.89
44351;BME280;62766;62.622;17.912;2023-02-19T03:32:46;99167.98;;;-1.42;62.57
44351;BME280;62766;62.622;17.912;2023-02-19T03:35:19;99168.08;;;-1.48;62.46
44351;BME280;62766;62.622;17.912;2023-02-19T03:37:53;99193.17;;;-1.32;62.59
44351;BME280;62766;62.622;17.912;2023-02-19T03:40:28;99173.05;;;-1.21;62.16
44351;BME280;62766;62.622;17.912;2023-02-19T03:43:02;99170.51;;;-1.25;61.86
44351;BME280;62766;62.622;17.912;2023-02-19T03:45:43;99182.61;;;-1.25;61.96
44351;BME280;62766;62.622;17.912;2023-02-19T03:48:22;99183.97;;;-1.22;61.53
44351;BME280;62766;62.622;17.912;2023-02-19T03:50:59;99181.88;;;-1.09;61.66
44351;BME280;62766;62.622;17.912;2023-02-19T03:53:31;99171.15;;;-1.14;60.94
44351;BME280;62766;62.622;17.912;2023-02-19T03:56:07;99180.02;;;-1.28;61.86
44351;BME280;62766;62.622;17.912;2023-02-19T03:58:47;99180.95;;;-1.42;61.99
44351;BME280;62766;62.622;17.912;2023-02-19T04:01:21;99182.51;;;-1.44;62.36
44351;BME280;62766;62.622;17.912;2023-02-19T04:03:56;99182.36;;;-1.24;62.44
44351;BME280;62766;62.622;17.912;2023-02-19T04:06:30;99182.56;;;-1.19;61.85
44351;BME280;62766;62.622;17.912;2023-02-19T04:09:03;99186.14;;;-1.27;61.73
44351;BME280;62766;62.622;17.912;2023-02-19T04:11:34;99209.95;;;-1.40;61.58
44351;BME280;62766;62.622;17.912;2023-02-19T04:14:06;99190.67;;;-1.14;61.58
44351;BME280;62766;62.622;17.912;2023-02-19T04:16:42;99194.34;;;-1.32;61.70
44351;BME280;62766;62.622;17.912;2023-02-19T04:19:17;99187.19;;;-1.19;61.63
44351;BME280;62766;62.622;17.912;2023-02-19T04:21:48;99204.37;;;-1.23;62.03
44351;BME280;62766;62.622;17.912;2023-02-19T04:24:20;99202.33;;;-1.47;61.96
44351;BME280;62766;62.622;17.912;2023-02-19T04:26:49;99195.36;;;-1.25;62.16
44351;BME280;62766;62.622;17.912;2023-02-19T04:29:18;99200.56;;;-1.22;61.90
44351;BME280;62766;62.622;17.912;2023-02-19T04:31:46;99192.06;;;-1.21;61.65
44351;BME280;62766;62.622;17.912;2023-02-19T04:34:15;99191.10;;;-1.13;61.24
44351;BME280;62766;62.622;17.912;2023-02-19T04:36:43;99200.86;;;-1.27;61.54
44351;BME280;62766;62.622;17.912;2023-02-19T04:39:12;99198.86;;;-1.31;61.52
44351;BME280;62766;62.622;17.912;2023-02-19T04:41:40;99195.93;;;-1.24;61.23
44351;BME280;62766;62.622;17.912;2023-02-19T04:44:09;99200.85;;;-1.22;61.27
44351;BME280;62766;62.622;17.912;2023-02-19T04:46:39;99201.45;;;-1.13;61.26
44351;BME280;62766;62.622;17.912;2023-02-19T04:49:08;99213.74;;;-1.20;61.28
44351;BME280;62766;62.622;17.912;2023-02-19T04:51:37;99206.54;;;-1.13;61.00
44351;BME280;62766;62.622;17.912;2023-02-19T04:54:06;99200.46;;;-1.10;60.94
44351;BME280;62766;62.622;17.912;2023-02-19T04:56:36;99213.44;;;-1.15;60.51
44351;BME280;62766;62.622;17.912;2023-02-19T04:59:04;99221.33;;;-1.17;60.46
44351;BME280;62766;62.622;17.912;2023-02-19T05:04:47;99221.81;;;-1.22;60.07
44351;BME280;62766;62.622;17.912;2023-02-19T05:07:16;99231.68;;;-1.25;60.49
44351;BME280;62766;62.622;17.912;2023-02-19T05:09:44;99227.97;;;-1.20;60.29
44351;BME280;62766;62.622;17.912;2023-02-19T05:12:13;99244.26;;;-1.12;60.42
44351;BME280;62766;62.622;17.912;2023-02-19T05:14:41;99239.93;;;-1.06;60.10
44351;BME280;62766;62.622;17.912;2023-02-19T05:17:10;99241.93;;;-0.99;59.89
44351;BME280;62766;62.622;17.912;2023-02-19T05:19:38;99242.58;;;-0.85;59.58
44351;BME280;62766;62.622;17.912;2023-02-19T05:22:08;99250.57;;;-1.01;59.49
44351;BME280;62766;62.622;17.912;2023-02-19T05:24:37;99247.40;;;-1.06;59.12
44351;BME280;62766;62.622;17.912;2023-02-19T05:27:06;99251.40;;;-0.95;58.65
44351;BME280;62766;62.622;17.912;2023-02-19T05:29:34;99246.44;;;-1.17;58.86
44351;BME280;62766;62.622;17.912;2023-02-19T05:32:03;99260.25;;;-1.22;59.11
44351;BME280;62766;62.622;17.912;2023-02-19T05:34:31;99249.26;;;-1.27;59.37
44351;BME280;62766;62.622;17.912;2023-02-19T05:37:00;99253.17;;;-1.11;58.52
44351;BME280;62766;62.622;17.912;2023-02-19T05:39:30;99250.34;;;-1.18;58.73
44351;BME280;62766;62.622;17.912;2023-02-19T05:41:58;99252.85;;;-1.37;59.07
44351;BME280;62766;62.622;17.912;2023-02-19T05:44:27;99241.84;;;-1.13;58.71
44351;BME280;62766;62.622;17.912;2023-02-19T05:46:55;99240.15;;;-1.28;59.10
44351;BME280;62766;62.622;17.912;2023-02-19T05:49:24;99239.27;;;-1.19;58.43
44351;BME280;62766;62.622;17.912;2023-02-19T05:51:53;99239.71;;;-1.28;59.00
44351;BME280;62766;62.622;17.912;2023-02-19T05:54:21;99233.39;;;-1.17;58.40
44351;BME280;62766;62.622;17.912;2023-02-19T05:56:50;99247.58;;;-1.20;58.60
44351;BME280;62766;62.622;17.912;2023-02-19T05:59:20;99239.64;;;-1.17;58.57
44351;BME280;62766;62.622;17.912;2023-02-19T06:01:50;99236.73;;;-1.24;58.49
44351;BME280;62766;62.622;17.912;2023-02-19T06:04:19;99237.12;;;-1.23;58.04
44351;BME280;62766;62.622;17.912;2023-02-19T06:06:47;99234.87;;;-1.24;57.88
44351;BME280;62766;62.622;17.912;2023-02-19T06:09:16;99237.83;;;-1.24;57.97
44351;BME280;62766;62.622;17.912;2023-02-19T06:11:44;99239.34;;;-1.21;57.96
44351;BME280;62766;62.622;17.912;2023-02-19T06:14:13;99242.13;;;-1.27;57.61
44351;BME280;62766;62.622;17.912;2023-02-19T06:16:41;99248.65;;;-1.36;58.17
44351;BME280;62766;62.622;17.912;2023-02-19T06:19:10;99247.87;;;-1.29;57.78
44351;BME280;62766;62.622;17.912;2023-02-19T06:21:39;99250.17;;;-1.23;57.53
44351;BME280;62766;62.622;17.912;2023-02-19T06:24:08;99261.22;;;-1.32;57.38
44351;BME280;62766;62.622;17.912;2023-02-19T06:26:36;99261.73;;;-1.30;57.70
44351;BME280;62766;62.622;17.912;2023-02-19T06:29:04;99258.25;;;-1.20;57.43
44351;BME280;62766;62.622;17.912;2023-02-19T06:31:33;99274.41;;;-1.29;57.23
44351;BME280;62766;62.622;17.912;2023-02-19T06:34:03;99277.31;;;-1.19;57.08
44351;BME280;62766;62.622;17.912;2023-02-19T06:36:32;99277.71;;;-1.22;57.33
44351;BME280;62766;62.622;17.912;2023-02-19T06:39:03;99279.98;;;-1.12;56.70
44351;BME280;62766;62.622;17.912;2023-02-19T06:41:31;99286.89;;;-1.20;56.50
44351;BME280;62766;62.622;17.912;2023-02-19T06:44:00;99279.82;;;-1.35;57.00
44351;BME280;62766;62.622;17.912;2023-02-19T06:46:28;99294.48;;;-1.33;56.65
44351;BME280;62766;62.622;17.912;2023-02-19T06:48:57;99299.45;;;-1.27;56.72
44351;BME280;62766;62.622;17.912;2023-02-19T06:51:25;99293.73;;;-1.30;56.85
44351;BME280;62766;62.622;17.912;2023-02-19T06:53:54;99299.43;;;-1.38;56.90
44351;BME280;62766;62.622;17.912;2023-02-19T06:56:24;99299.82;;;-1.18;57.03
44351;BME280;62766;62.622;17.912;2023-02-19T06:58:56;99309.06;;;-1.22;56.89
44351;BME280;62766;62.622;17.912;2023-02-19T07:01:25;99313.95;;;-1.41;57.18
44351;BME280;62766;62.622;17.912;2023-02-19T07:03:55;99317.51;;;-1.27;56.84
44351;BME280;62766;62.622;17.912;2023-02-19T07:06:25;99311.69;;;-1.41;57.12
44351;BME280;62766;62.622;17.912;2023-02-19T07:08:55;99318.20;;;-1.22;56.30
44351;BME280;62766;62.622;17.912;2023-02-19T07:11:25;99316.50;;;-1.25;56.67
44351;BME280;62766;62.622;17.912;2023-02-19T07:13:55;99316.55;;;-1.30;56.63
44351;BME280;62766;62.622;17.912;2023-02-19T07:16:23;99325.99;;;-1.30;56.54
44351;BME280;62766;62.622;17.912;2023-02-19T07:18:51;99319.87;;;-1.23;56.68
44351;BME280;62766;62.622;17.912;2023-02-19T07:21:20;99324.62;;;-1.16;56.55
44351;BME280;62766;62.622;17.912;2023-02-19T07:23:49;99333.73;;;-1.18;56.57
44351;BME280;62766;62.622;17.912;2023-02-19T07:26:19;99321.71;;;-1.09;56.31
44351;BME280;62766;62.622;17.912;2023-02-19T07:28:49;99325.56;;;-1.00;56.43
44351;BME280;62766;62.622;17.912;2023-02-19T07:31:20;99330.53;;;-1.08;56.26
44351;BME280;62766;62.622;17.912;2023-02-19T07:33:49;99325.47;;;-0.92;56.10
44351;BME280;62766;62.622;17.912;2023-02-19T07:36:18;99330.35;;;-0.96;55.99
44351;BME280;62766;62.622;17.912;2023-02-19T07:38:52;99330.58;;;-0.98;55.89
44351;BME280;62766;62.622;17.912;2023-02-19T07:41:21;99337.84;;;-1.13;56.07
44351;BME280;62766;62.622;17.912;2023-02-19T07:43:50;99336.51;;;-0.94;55.74
44351;BME280;62766;62.622;17.912;2023-02-19T07:46:18;99331.80;;;-0.90;56.00
44351;BME280;62766;62.622;17.912;2023-02-19T07:48:47;99328.40;;;-0.90;55.53
44351;BME280;62766;62.622;17.912;2023-02-19T07:51:18;99336.46;;;-0.99;55.91
44351;BME280;62766;62.622;17.912;2023-02-19T07:53:48;99334.21;;;-0.87;55.65
44351;BME280;62766;62.622;17.912;2023-02-19T07:56:18;99339.43;;;-0.68;55.23
44351;BME280;62766;62.622;17.912;2023-02-19T07:58:46;99340.16;;;-0.84;55.11
44351;BME280;62766;62.622;17.912;2023-02-19T08:01:16;99335.77;;;-0.80;55.26
44351;BME280;62766;62.622;17.912;2023-02-19T08:03:45;99327.08;;;-0.90;55.40
44351;BME280;62766;62.622;17.912;2023-02-19T08:06:13;99331.91;;;-0.77;55.02
44351;BME280;62766;62.622;17.912;2023-02-19T08:08:42;99333.54;;;-0.77;55.41
44351;BME280;62766;62.622;17.912;2023-02-19T08:11:10;99342.76;;;-0.85;55.72
44351;BME280;62766;62.622;17.912;2023-02-19T08:13:39;99361.48;;;-0.92;55.58
44351;BME280;62766;62.622;17.912;2023-02-19T08:16:11;99345.31;;;-0.80;55.62
44351;BME280;62766;62.622;17.912;2023-02-19T08:18:40;99350.70;;;-0.80;55.11
44351;BME280;62766;62.622;17.912;2023-02-19T08:21:09;99355.28;;;-0.76;54.87
44351;BME280;62766;62.622;17.912;2023-02-19T08:23:39;99357.19;;;-0.64;54.79
44351;BME280;62766;62.622;17.912;2023-02-19T08:26:07;99362.05;;;-0.71;54.71
44351;BME280;62766;62.622;17.912;2023-02-19T08:28:35;99354.04;;;-0.53;54.60
44351;BME280;62766;62.622;17.912;2023-02-19T08:31:05;99370.68;;;-0.67;54.46
44351;BME280;62766;62.622;17.912;2023-02-19T08:33:34;99365.74;;;-0.51;54.30
44351;BME280;62766;62.622;17.912;2023-02-19T08:36:05;99362.61;;;-0.40;54.14
44351;BME280;62766;62.622;17.912;2023-02-19T08:38:35;99352.03;;;-0.38;53.97
44351;BME280;62766;62.622;17.912;2023-02-19T08:41:04;99358.38;;;-0.40;53.74
44351;BME280;62766;62.622;17.912;2023-02-19T08:43:34;99360.91;;;-0.39;53.68
44351;BME280;62766;62.622;17.912;2023-02-19T08:46:03;99363.32;;;-0.35;53.57
44351;BME280;62766;62.622;17.912;2023-02-19T08:48:32;99370.50;;;-0.31;53.07
44351;BME280;62766;62.622;17.912;2023-02-19T08:51:03;99361.19;;;-0.09;52.73
44351;BME280;62766;62.622;17.912;2023-02-19T08:53:34;99375.08;;;-0.11;52.46
44351;BME280;62766;62.622;17.912;2023-02-19T08:56:04;99373.22;;;-0.16;52.36
44351;BME280;62766;62.622;17.912;2023-02-19T08:58:34;99379.38;;;-0.13;52.50
44351;BME280;62766;62.622;17.912;2023-02-19T09:01:06;99376.11;;;-0.17;52.16
44351;BME280;62766;62.622;17.912;2023-02-19T09:03:36;99381.84;;;-0.11;52.30
44351;BME280;62766;62.622;17.912;2023-02-19T09:06:05;99387.30;;;0.07;51.78
44351;BME280;62766;62.622;17.912;2023-02-19T09:08:35;99398.12;;;-0.19;52.05
44351;BME280;62766;62.622;17.912;2023-02-19T09:11:04;99404.56;;;-0.15;52.21
44351;BME280;62766;62.622;17.912;2023-02-19T09:13:33;99409.14;;;-0.08;51.64
44351;BME280;62766;62.622;17.912;2023-02-19T09:16:03;99409.25;;;-0.04;52.15
44351;BME280;62766;62.622;17.912;2023-02-19T09:18:32;99416.14;;;-0.15;51.64
44351;BME280;62766;62.622;17.912;2023-02-19T09:21:03;99423.09;;;-0.11;51.71
44351;BME280;62766;62.622;17.912;2023-02-19T09:23:33;99425.99;;;-0.08;51.76
44351;BME280;62766;62.622;17.912;2023-02-19T09:26:04;99428.30;;;0.02;51.85
44351;BME280;62766;62.622;17.912;2023-02-19T09:28:34;99427.75;;;-0.04;51.61
44351;BME280;62766;62.622;17.912;2023-02-19T09:31:03;99419.58;;;0.06;51.51
44351;BME280;62766;62.622;17.912;2023-02-19T09:33:32;99422.48;;;0.01;51.19
44351;BME280;62766;62.622;17.912;2023-02-19T09:36:02;99421.39;;;0.25;51.44
44351;BME280;62766;62.622;17.912;2023-02-19T09:38:31;99422.69;;;0.37;50.94
44351;BME280;62766;62.622;17.912;2023-02-19T09:41:05;99422.11;;;0.54;50.01
44351;BME280;62766;62.622;17.912;2023-02-19T09:43:35;99417.58;;;0.32;50.56
44351;BME280;62766;62.622;17.912;2023-02-19T09:46:11;99422.36;;;0.42;49.90
44351;BME280;62766;62.622;17.912;2023-02-19T09:48:46;99420.08;;;0.29;50.39
44351;BME280;62766;62.622;17.912;2023-02-19T09:51:14;99422.85;;;0.42;50.18
44351;BME280;62766;62.622;17.912;2023-02-19T09:53:48;99434.06;;;0.43;50.23
44351;BME280;62766;62.622;17.912;2023-02-19T09:56:18;99433.44;;;0.33;50.14
44351;BME280;62766;62.622;17.912;2023-02-19T09:58:49;99432.84;;;0.43;50.18
44351;BME280;62766;62.622;17.912;2023-02-19T10:01:21;99437.81;;;0.56;50.15
44351;BME280;62766;62.622;17.912;2023-02-19T10:03:51;99442.71;;;0.47;49.85
44351;BME280;62766;62.622;17.912;2023-02-19T10:06:21;99441.68;;;0.53;50.03
44351;BME280;62766;62.622;17.912;2023-02-19T10:08:54;99441.35;;;0.64;49.89
44351;BME280;62766;62.622;17.912;2023-02-19T10:11:24;99434.23;;;0.81;49.78
44351;BME280;62766;62.622;17.912;2023-02-19T10:14:00;99445.28;;;0.94;49.67
44351;BME280;62766;62.622;17.912;2023-02-19T10:16:31;99450.68;;;1.20;49.59
44351;BME280;62766;62.622;17.912;2023-02-19T10:19:02;99463.76;;;1.22;48.77
44351;BME280;62766;62.622;17.912;2023-02-19T10:21:31;99453.62;;;1.24;48.64
44351;BME280;62766;62.622;17.912;2023-02-19T10:24:01;99449.15;;;1.34;48.44
44351;BME280;62766;62.622;17.912;2023-02-19T10:26:32;99464.46;;;1.40;48.15
44351;BME280;62766;62.622;17.912;2023-02-19T10:29:01;99465.29;;;1.67;48.65
44351;BME280;62766;62.622;17.912;2023-02-19T10:31:32;99467.97;;;1.58;48.24
44351;BME280;62766;62.622;17.912;2023-02-19T10:34:01;99471.86;;;1.61;48.11
44351;BME280;62766;62.622;17.912;2023-02-19T10:36:31;99471.05;;;1.53;47.72
44351;BME280;62766;62.622;17.912;2023-02-19T10:39:28;99479.64;;;1.68;47.21
44351;BME280;62766;62.622;17.912;2023-02-19T10:41:58;99479.21;;;1.57;46.41
44351;BME280;62766;62.622;17.912;2023-02-19T10:44:28;99474.26;;;1.38;47.53
44351;BME280;62766;62.622;17.912;2023-02-19T10:46:58;99478.00;;;1.33;47.52
44351;BME280;62766;62.622;17.912;2023-02-19T10:49:28;99477.86;;;1.31;47.90
44351;BME280;62766;62.622;17.912;2023-02-19T10:52:01;99474.81;;;1.52;47.75
44351;BME280;62766;62.622;17.912;2023-02-19T10:54:38;99482.15;;;1.53;47.24
44351;BME280;62766;62.622;17.912;2023-02-19T10:57:22;99486.17;;;1.66;47.55
44351;BME280;62766;62.622;17.912;2023-02-19T10:59:54;99491.49;;;1.86;46.81
44351;BME280;62766;62.622;17.912;2023-02-19T11:03:36;99484.19;;;1.74;47.22
44351;BME280;62766;62.622;17.912;2023-02-19T11:06:07;99493.50;;;1.59;46.74
44351;BME280;62766;62.622;17.912;2023-02-19T11:08:48;99489.95;;;1.63;47.08
44351;BME280;62766;62.622;17.912;2023-02-19T11:11:25;99492.91;;;1.69;46.79
44351;BME280;62766;62.622;17.912;2023-02-19T11:13:56;99490.23;;;1.77;47.02
44351;BME280;62766;62.622;17.912;2023-02-19T11:16:39;99496.92;;;2.00;46.69
44351;BME280;62766;62.622;17.912;2023-02-19T11:19:26;99501.36;;;2.01;46.45
44351;BME280;62766;62.622;17.912;2023-02-19T11:21:56;99502.75;;;1.94;46.51
44351;BME280;62766;62.622;17.912;2023-02-19T11:24:30;99507.36;;;2.07;46.44
44351;BME280;62766;62.622;17.912;2023-02-19T11:27:02;99515.33;;;1.94;46.33
44351;BME280;62766;62.622;17.912;2023-02-19T11:29:31;99515.17;;;2.04;46.44
44351;BME280;62766;62.622;17.912;2023-02-19T11:32:22;99517.72;;;2.12;46.50
44351;BME280;62766;62.622;17.912;2023-02-19T11:35:03;99519.97;;;2.27;46.22
44351;BME280;62766;62.622;17.912;2023-02-19T11:37:53;99516.60;;;2.56;45.65
44351;BME280;62766;62.622;17.912;2023-02-19T11:40:28;99523.96;;;2.66;44.85
44351;BME280;62766;62.622;17.912;2023-02-19T11:43:09;99516.39;;;2.73;45.42
44351;BME280;62766;62.622;17.912;2023-02-19T11:45:44;99525.23;;;2.56;44.57
44351;BME280;62766;62.622;17.912;2023-02-19T11:48:34;99527.16;;;2.39;44.37
44351;BME280;62766;62.622;17.912;2023-02-19T11:51:23;99524.30;;;2.34;44.96
44351;BME280;62766;62.622;17.912;2023-02-19T11:54:02;99532.55;;;2.32;45.20
44351;BME280;62766;62.622;17.912;2023-02-19T11:56:38;99531.31;;;2.43;44.87
44351;BME280;62766;62.622;17.912;2023-02-19T11:59:14;99535.27;;;2.42;44.92
44351;BME280;62766;62.622;17.912;2023-02-19T12:02:00;99535.42;;;2.23;44.60
44351;BME280;62766;62.622;17.912;2023-02-19T12:05:02;99538.52;;;1.83;45.28
44351;BME280;62766;62.622;17.912;2023-02-19T12:07:52;99543.32;;;1.71;45.88
44351;BME280;62766;62.622;17.912;2023-02-19T12:10:32;99552.16;;;1.47;46.66
44351;BME280;62766;62.622;17.912;2023-02-19T12:13:12;99550.01;;;1.34;46.19
44351;BME280;62766;62.622;17.912;2023-02-19T12:15:55;99554.74;;;1.39;46.45
44351;BME280;62766;62.622;17.912;2023-02-19T12:18:42;99553.43;;;1.38;46.31
44351;BME280;62766;62.622;17.912;2023-02-19T12:21:25;99558.50;;;1.36;47.19
44351;BME280;62766;62.622;17.912;2023-02-19T12:24:08;99555.64;;;1.67;46.35
44351;BME280;62766;62.622;17.912;2023-02-19T12:26:45;99558.75;;;1.72;46.13
44351;BME280;62766;62.622;17.912;2023-02-19T12:29:39;99556.26;;;1.72;46.50
44351;BME280;62766;62.622;17.912;2023-02-19T12:32:25;99561.56;;;1.95;46.14
44351;BME280;62766;62.622;17.912;2023-02-19T12:35:43;99568.00;;;1.90;45.85
44351;BME280;62766;62.622;17.912;2023-02-19T12:38:20;99570.46;;;1.86;46.25
44351;BME280;62766;62.622;17.912;2023-02-19T12:41:04;99570.44;;;2.01;46.14
44351;BME280;62766;62.622;17.912;2023-02-19T12:43:33;99569.51;;;1.97;46.05
44351;BME280;62766;62.622;17.912;2023-02-19T12:46:07;99568.88;;;1.95;45.49
44351;BME280;62766;62.622;17.912;2023-02-19T12:48:41;99568.15;;;1.87;45.75
44351;BME280;62766;62.622;17.912;2023-02-19T12:51:20;99564.79;;;2.15;45.67
44351;BME280;62766;62.622;17.912;2023-02-19T12:53:53;99574.03;;;2.13;45.34
44351;BME280;62766;62.622;17.912;2023-02-19T12:56:27;99570.20;;;2.11;45.87
44351;BME280;62766;62.622;17.912;2023-02-19T12:58:59;99569.40;;;2.25;44.78
44351;BME280;62766;62.622;17.912;2023-02-19T13:01:34;99577.44;;;2.20;45.30
44351;BME280;62766;62.622;17.912;2023-02-19T13:04:16;99576.17;;;2.35;45.36
44351;BME280;62766;62.622;17.912;2023-02-19T13:06:50;99576.55;;;2.24;45.33
44351;BME280;62766;62.622;17.912;2023-02-19T13:09:23;99583.17;;;2.41;45.27
44351;BME280;62766;62.622;17.912;2023-02-19T13:12:01;99588.07;;;2.52;44.48
44351;BME280;62766;62.622;17.912;2023-02-19T13:14:33;99582.80;;;2.25;44.65
44351;BME280;62766;62.622;17.912;2023-02-19T13:17:12;99581.83;;;2.37;44.40
44351;BME280;62766;62.622;17.912;2023-02-19T13:19:45;99586.01;;;2.31;44.66
44351;BME280;62766;62.622;17.912;2023-02-19T13:22:22;99588.22;;;2.43;44.80